Time;durP1;ratioP1;P1;durP2;ratioP2;P2;SDS_P1;SDS_P2;PMS_P1;PMS_P2;Temp;Humidity;BMP_temperature;BMP_pressure;BME280_temperature;BME280_humidity;BME280_pressure;Samples;Min_cycle;Max_cycle;Signal;HPM_P1;HPM_P2
2023/03/12 00:01:26;;;;;;;3.95;2.42;;;;;;;-1.92;100.00;96962.94;5139568;27;20043;-60
2023/03/12 00:03:53;;;;;;;2.90;1.85;;;;;;;-1.91;100.00;96964.50;5139385;27;20347;-65
2023/03/12 00:06:20;;;;;;;2.38;2.17;;;;;;;-1.98;100.00;96933.97;5139802;27;20055;-65
2023/03/12 00:08:46;;;;;;;5.05;1.75;;;;;;;-2.04;100.00;96903.09;5139166;28;20054;-62
2023/03/12 00:11:14;;;;;;;3.38;2.33;;;;;;;-2.04;100.00;96893.13;5139556;27;20043;-60
2023/03/12 00:13:40;;;;;;;2.17;1.60;;;;;;;-1.96;100.00;96886.09;5139536;27;20134;-67
2023/03/12 00:16:09;;;;;;;4.20;1.80;;;;;;;-1.93;100.00;96869.28;5139527;27;20333;-62
2023/03/12 00:18:35;;;;;;;2.90;2.00;;;;;;;-1.94;100.00;96851.59;5139344;28;20130;-61
2023/03/12 00:21:01;;;;;;;3.10;2.25;;;;;;;-1.88;100.00;96847.56;5139480;27;20053;-59
2023/03/12 00:23:27;;;;;;;5.50;2.45;;;;;;;-1.66;100.00;96867.78;5138953;27;20047;-59
2023/03/12 00:25:53;;;;;;;2.33;1.83;;;;;;;-1.78;100.00;96840.94;5139085;27;20365;-58
2023/03/12 00:28:19;;;;;;;2.75;1.90;;;;;;;-1.73;100.00;96822.69;5139156;28;20051;-60
2023/03/12 00:30:45;;;;;;;1.75;1.35;;;;;;;-1.76;100.00;96834.09;5139082;27;20047;-67
2023/03/12 00:33:12;;;;;;;4.05;2.67;;;;;;;-1.83;100.00;96785.56;5139104;28;20053;-62
2023/03/12 00:35:38;;;;;;;1.52;1.42;;;;;;;-1.73;100.00;96800.41;5138823;27;20047;-66
2023/03/12 00:38:04;;;;;;;1.13;1.02;;;;;;;-1.75;100.00;96773.09;5139097;28;20061;-63
2023/03/12 00:40:30;;;;;;;3.28;2.00;;;;;;;-1.73;100.00;96813.84;5138828;27;20050;-60
2023/03/12 00:42:56;;;;;;;1.65;1.45;;;;;;;-1.68;100.00;96827.03;5139102;27;20047;-62
2023/03/12 00:45:22;;;;;;;1.30;1.20;;;;;;;-1.70;100.00;96800.50;5138619;28;20058;-61
2023/03/12 00:47:48;;;;;;;2.10;1.90;;;;;;;-1.66;100.00;96789.88;5138982;28;20062;-63
2023/03/12 00:50:14;;;;;;;1.65;1.40;;;;;;;-1.74;100.00;96772.75;5137351;27;20142;-66
2023/03/12 00:52:40;;;;;;;5.22;2.00;;;;;;;-1.41;100.00;96822.75;5138969;27;20061;-66
2023/03/12 00:55:07;;;;;;;2.17;1.58;;;;;;;-1.59;100.00;96773.16;5138647;27;20051;-63
2023/03/12 00:57:33;;;;;;;2.15;1.52;;;;;;;-1.53;100.00;96755.66;5138652;27;20130;-63
2023/03/12 00:59:59;;;;;;;2.92;1.58;;;;;;;-1.68;100.00;96714.19;5138728;28;20051;-62
2023/03/12 01:02:25;;;;;;;0.80;0.80;;;;;;;-1.61;100.00;96689.41;5138556;28;20047;-58
2023/03/12 01:04:51;;;;;;;2.10;1.60;;;;;;;-1.65;100.00;96667.84;5138864;27;20155;-62
2023/03/12 01:07:17;;;;;;;1.88;1.30;;;;;;;-1.80;100.00;96617.56;5138379;28;20055;-62
2023/03/12 01:09:43;;;;;;;2.47;1.30;;;;;;;-1.86;100.00;96605.53;5138426;28;20051;-65
2023/03/12 01:12:09;;;;;;;1.88;1.40;;;;;;;-1.71;100.00;96615.50;5138169;27;20142;-67
2023/03/12 01:14:35;;;;;;;2.42;1.67;;;;;;;-1.38;100.00;96619.72;5138082;28;20047;-68
2023/03/12 01:17:01;;;;;;;5.18;1.48;;;;;;;-1.61;100.00;96571.22;5138199;27;20141;-69
2023/03/12 01:19:27;;;;;;;1.15;1.05;;;;;;;-1.62;100.00;96559.69;5138549;27;20047;-66
2023/03/12 01:21:53;;;;;;;4.22;1.15;;;;;;;-1.62;100.00;96554.31;5138014;28;20328;-64
2023/03/12 01:24:19;;;;;;;2.65;1.48;;;;;;;-1.53;100.00;96529.97;5138023;28;20373;-59
2023/03/12 01:26:45;;;;;;;1.85;1.48;;;;;;;-1.63;100.00;96482.94;5137898;27;20051;-61
2023/03/12 01:29:11;;;;;;;1.35;1.25;;;;;;;-1.60;100.00;96492.97;5138177;27;20192;-59
2023/03/12 01:31:37;;;;;;;1.27;1.20;;;;;;;-1.57;100.00;96443.88;5138253;27;20051;-59
2023/03/12 01:34:03;;;;;;;1.15;0.98;;;;;;;-1.56;100.00;96439.31;5138159;27;20130;-58
2023/03/12 01:36:30;;;;;;;1.40;1.30;;;;;;;-1.77;100.00;96402.78;5138205;28;20384;-60
2023/03/12 01:38:58;;;;;;;4.05;2.00;;;;;;;-1.86;100.00;96417.56;5137954;28;20332;-61
2023/03/12 01:41:26;;;;;;;2.25;1.17;;;;;;;-1.73;100.00;96406.34;5138324;28;20138;-67
2023/03/12 01:43:52;;;;;;;1.75;1.27;;;;;;;-1.61;100.00;96418.09;5137931;28;20150;-63
2023/03/12 01:46:24;;;;;;;1.20;1.05;;;;;;;-1.59;100.00;96421.22;5139982;28;20047;-65
2023/03/12 01:48:55;;;;;;;1.13;1.02;;;;;;;-1.59;100.00;96378.22;5137696;28;20051;-67
2023/03/12 01:51:24;;;;;;;1.10;1.02;;;;;;;-1.70;100.00;96318.91;5138004;27;20171;-60
2023/03/12 01:53:53;;;;;;;0.85;0.85;;;;;;;-1.72;100.00;96302.38;5138021;27;20115;-66
2023/03/12 01:56:21;;;;;;;1.38;0.93;;;;;;;-1.76;100.00;96278.13;5137968;27;20047;-62
2023/03/12 01:58:51;;;;;;;2.47;0.90;;;;;;;-1.84;100.00;96254.94;5138021;27;20449;-68
2023/03/12 02:01:19;;;;;;;1.10;0.85;;;;;;;-1.81;100.00;96250.78;5137838;27;20336;-68
2023/03/12 02:03:46;;;;;;;3.50;0.93;;;;;;;-1.72;100.00;96270.16;5138224;27;20047;-67
2023/03/12 02:06:14;;;;;;;2.17;1.10;;;;;;;-1.75;100.00;96274.31;5137747;27;20050;-67
2023/03/12 02:08:44;;;;;;;1.58;1.23;;;;;;;-1.92;100.00;96278.22;5138192;28;20139;-62
2023/03/12 02:11:10;;;;;;;1.05;0.95;;;;;;;-1.86;100.00;96286.00;5137420;28;20137;-60
2023/03/12 02:13:36;;;;;;;1.10;1.00;;;;;;;-1.85;100.00;96288.31;5137782;28;20047;-57
2023/03/12 02:16:03;;;;;;;1.38;0.95;;;;;;;-1.73;100.00;96269.38;5137186;28;20408;-62
2023/03/12 02:18:29;;;;;;;1.73;0.80;;;;;;;-1.77;100.00;96244.34;5137454;28;20130;-67
2023/03/12 02:21:07;;;;;;;1.65;0.85;;;;;;;-1.81;100.00;96234.66;5137488;28;20047;-62
2023/03/12 02:23:40;;;;;;;0.90;0.90;;;;;;;-1.63;100.00;96243.84;5137140;28;20058;-67
2023/03/12 02:26:08;;;;;;;0.80;0.80;;;;;;;-1.90;100.00;96227.63;5137502;27;20051;-68
2023/03/12 02:28:42;;;;;;;0.80;0.73;;;;;;;-1.88;100.00;96229.94;5137203;28;20138;-58
2023/03/12 02:31:11;;;;;;;1.50;0.82;;;;;;;-1.76;100.00;96221.75;5137454;27;20534;-66
2023/03/12 02:33:37;;;;;;;0.88;0.88;;;;;;;-1.92;100.00;96215.69;5137093;28;20138;-65
2023/03/12 02:36:04;;;;;;;3.28;0.80;;;;;;;-1.91;100.00;96219.91;5137414;27;20047;-61
2023/03/12 02:38:39;;;;;;;2.47;0.90;;;;;;;-1.88;100.00;96197.72;5136954;28;20047;-62
2023/03/12 02:41:11;;;;;;;1.50;1.10;;;;;;;-1.99;100.00;96194.06;5136942;28;20476;-66
2023/03/12 02:43:37;;;;;;;1.42;1.33;;;;;;;-1.83;100.00;96193.97;5137279;28;20294;-62
2023/03/12 02:46:04;;;;;;;1.92;0.80;;;;;;;-1.80;100.00;96193.25;5137001;28;20085;-68
2023/03/12 02:48:30;;;;;;;0.70;0.70;;;;;;;-1.97;100.00;96176.47;5137207;27;20057;-66
2023/03/12 02:50:56;;;;;;;0.93;0.93;;;;;;;-1.91;100.00;96188.47;5136930;28;20142;-68
2023/03/12 02:53:22;;;;;;;2.65;1.08;;;;;;;-1.86;100.00;96195.47;5137083;28;20478;-59
2023/03/12 02:55:48;;;;;;;0.68;0.60;;;;;;;-1.81;100.00;96195.16;5136780;28;20051;-64
2023/03/12 02:58:15;;;;;;;1.70;0.90;;;;;;;-1.70;100.00;96189.97;5137128;27;20047;-65
2023/03/12 03:00:41;;;;;;;2.92;1.30;;;;;;;-1.92;100.00;96211.09;5136711;27;20051;-59
2023/03/12 03:03:06;;;;;;;1.17;0.70;;;;;;;-1.85;100.00;96229.22;5137184;28;20050;-64
2023/03/12 03:05:35;;;;;;;0.75;0.75;;;;;;;-1.75;100.00;96209.09;5136863;27;20090;-68
2023/03/12 03:08:01;;;;;;;0.75;0.75;;;;;;;-1.66;100.00;96212.31;5136484;27;20137;-56
2023/03/12 03:10:27;;;;;;;3.30;1.45;;;;;;;-1.77;100.00;96214.03;5136722;27;20389;-64
2023/03/12 03:12:53;;;;;;;0.60;0.60;;;;;;;-1.75;100.00;96225.19;5138005;27;20055;-66
2023/03/12 03:15:20;;;;;;;0.85;0.85;;;;;;;-1.76;100.00;96207.53;5140552;27;20058;-68
2023/03/12 03:17:46;;;;;;;0.80;0.80;;;;;;;-1.72;100.00;96203.00;5140216;28;20110;-65
2023/03/12 03:20:12;;;;;;;1.38;1.08;;;;;;;-1.58;100.00;96221.28;5140632;27;20141;-66
2023/03/12 03:22:38;;;;;;;2.50;0.90;;;;;;;-1.87;100.00;96233.41;5139986;28;20047;-61
2023/03/12 03:25:05;;;;;;;0.73;0.70;;;;;;;-1.94;100.00;96228.66;5140014;28;20058;-67
2023/03/12 03:27:31;;;;;;;1.25;1.15;;;;;;;-2.14;100.00;96236.72;5139786;27;20066;-63
2023/03/12 03:29:57;;;;;;;1.80;1.00;;;;;;;-2.07;100.00;96275.59;5140332;27;20142;-67
2023/03/12 03:32:24;;;;;;;0.70;0.70;;;;;;;-1.93;100.00;96294.69;5139728;28;20047;-66
2023/03/12 03:34:50;;;;;;;2.42;1.10;;;;;;;-2.05;100.00;96279.47;5139996;27;20051;-65
2023/03/12 03:37:16;;;;;;;0.70;0.70;;;;;;;-2.23;100.00;96251.47;5139979;27;20150;-60
2023/03/12 03:39:42;;;;;;;1.27;0.82;;;;;;;-2.29;100.00;96266.34;5139982;27;20332;-56
2023/03/12 03:42:08;;;;;;;2.53;1.15;;;;;;;-2.30;100.00;96262.88;5139935;27;20054;-57
2023/03/12 03:44:34;;;;;;;0.70;0.65;;;;;;;-2.35;100.00;96268.50;5139595;27;20047;-66
2023/03/12 03:46:59;;;;;;;0.98;0.98;;;;;;;-2.32;100.00;96269.72;5139715;27;20054;-66
2023/03/12 03:49:26;;;;;;;2.58;1.38;;;;;;;-2.24;100.00;96277.53;5139503;27;20047;-68
2023/03/12 03:51:52;;;;;;;3.60;1.23;;;;;;;-2.24;100.00;96290.19;5139886;27;20054;-67
2023/03/12 03:54:18;;;;;;;1.95;1.30;;;;;;;-2.35;100.00;96302.63;5139560;27;20133;-68
2023/03/12 03:56:44;;;;;;;2.75;1.33;;;;;;;-2.42;100.00;96324.69;5139843;27;20173;-61
2023/03/12 03:59:10;;;;;;;1.83;1.00;;;;;;;-2.42;100.00;96348.84;5139363;28;20051;-67
2023/03/12 04:01:36;;;;;;;3.33;1.42;;;;;;;-2.47;100.00;96395.47;5139843;27;20389;-61
2023/03/12 04:04:03;;;;;;;1.88;1.45;;;;;;;-2.50;100.00;96414.16;5139253;27;20367;-60
2023/03/12 04:06:30;;;;;;;2.40;1.67;;;;;;;-2.50;100.00;96425.69;5139196;28;20510;-67
2023/03/12 04:08:57;;;;;;;3.78;1.27;;;;;;;-2.58;100.00;96490.22;5139513;27;20047;-63
2023/03/12 04:11:23;;;;;;;5.53;1.50;;;;;;;-2.70;100.00;96553.56;5139436;27;20137;-66
2023/03/12 04:13:50;;;;;;;2.13;1.70;;;;;;;-2.81;100.00;96594.59;5139182;27;20057;-59
2023/03/12 04:16:16;;;;;;;3.08;1.60;;;;;;;-2.83;100.00;96686.09;5139331;28;20335;-64
2023/03/12 04:18:43;;;;;;;1.30;1.20;;;;;;;-2.75;100.00;96735.34;5139437;27;20133;-62
2023/03/12 04:21:11;;;;;;;1.95;1.30;;;;;;;-2.85;100.00;96741.94;5139142;28;20055;-67
2023/03/12 04:23:38;;;;;;;4.10;1.95;;;;;;;-3.00;100.00;96756.81;5138986;27;20078;-58
2023/03/12 04:26:05;;;;;;;4.30;1.10;;;;;;;-3.00;100.00;96820.34;5138859;28;20051;-69
2023/03/12 04:28:33;;;;;;;1.15;1.05;;;;;;;-3.09;100.00;96833.88;5139398;28;20153;-63
2023/03/12 04:31:01;;;;;;;3.03;1.20;;;;;;;-3.18;100.00;96812.50;5138816;27;20134;-68
2023/03/12 04:33:27;;;;;;;3.92;1.55;;;;;;;-3.11;100.00;96814.66;5139104;28;20141;-69
2023/03/12 04:35:53;;;;;;;0.65;0.65;;;;;;;-3.06;100.00;96784.19;5138964;27;20517;-64
2023/03/12 04:38:19;;;;;;;2.42;1.45;;;;;;;-3.09;100.00;96786.41;5139004;27;20111;-58
2023/03/12 04:40:46;;;;;;;1.63;1.38;;;;;;;-3.05;100.00;96789.19;5139063;27;20154;-63
2023/03/12 04:43:13;;;;;;;1.60;1.13;;;;;;;-3.07;100.00;96769.97;5138808;27;20369;-64
2023/03/12 04:45:38;;;;;;;2.85;1.80;;;;;;;-3.10;100.00;96752.69;5139038;27;20043;-61
2023/03/12 04:48:05;;;;;;;0.80;0.80;;;;;;;-3.22;100.00;96808.94;5138608;27;20191;-63
2023/03/12 04:50:31;;;;;;;3.50;1.30;;;;;;;-3.03;100.00;96778.94;5138993;27;20137;-64
2023/03/12 04:52:57;;;;;;;2.70;2.30;;;;;;;-3.00;100.00;96764.88;5138441;28;20457;-63
2023/03/12 04:55:23;;;;;;;1.30;1.20;;;;;;;-3.06;100.00;96750.13;5138891;28;20051;-64
2023/03/12 04:57:49;;;;;;;7.72;1.48;;;;;;;-2.84;100.00;96732.78;5138560;28;20047;-68
2023/03/12 05:00:16;;;;;;;7.18;1.48;;;;;;;-2.73;100.00;96696.38;5138811;27;20054;-63
2023/03/12 05:02:42;;;;;;;10.07;2.17;;;;;;;-2.93;100.00;96703.44;5138697;27;20108;-60
2023/03/12 05:05:10;;;;;;;1.17;1.08;;;;;;;-2.82;100.00;96681.53;5138401;27;20160;-58
2023/03/12 05:07:36;;;;;;;1.02;1.00;;;;;;;-2.68;100.00;96698.03;5138795;27;20138;-65
2023/03/12 05:10:02;;;;;;;3.88;1.70;;;;;;;-2.94;100.00;96623.31;5139397;27;20323;-69
2023/03/12 05:12:29;;;;;;;3.95;1.33;;;;;;;-2.64;100.00;96629.16;5143493;27;20047;-67
2023/03/12 05:14:55;;;;;;;2.28;1.30;;;;;;;-2.62;100.00;96567.94;5138969;28;20431;-61
2023/03/12 05:17:21;;;;;;;4.22;1.50;;;;;;;-2.54;100.00;96531.34;5139054;27;20391;-63
2023/03/12 05:19:47;;;;;;;2.03;1.15;;;;;;;-2.63;100.00;96516.19;5139143;28;20047;-60
2023/03/12 05:22:14;;;;;;;3.63;1.33;;;;;;;-2.64;100.00;96517.28;5139314;27;20055;-62
2023/03/12 05:24:40;;;;;;;4.50;1.65;;;;;;;-2.64;100.00;96501.19;5139170;28;20185;-60
2023/03/12 05:27:07;;;;;;;2.00;1.38;;;;;;;-2.57;100.00;96514.03;5138782;27;20387;-60
2023/03/12 05:29:34;;;;;;;4.63;1.25;;;;;;;-2.35;100.00;96506.53;5137849;27;20051;-67
2023/03/12 05:32:01;;;;;;;2.15;1.35;;;;;;;-2.06;100.00;96491.91;5138178;28;20123;-60
2023/03/12 05:34:28;;;;;;;2.97;1.45;;;;;;;-1.66;100.00;96484.41;5138044;27;20061;-65
2023/03/12 05:36:54;;;;;;;1.33;1.23;;;;;;;-1.01;100.00;96408.50;5137321;27;20409;-66
2023/03/12 05:39:20;;;;;;;2.33;1.25;;;;;;;-0.39;100.00;96351.13;5138095;27;20132;-62
2023/03/12 05:41:46;;;;;;;5.72;2.13;;;;;;;0.13;100.00;96319.91;5137494;27;20137;-57
2023/03/12 05:44:14;;;;;;;6.18;1.30;;;;;;;0.53;100.00;96330.00;5137779;27;20463;-64
2023/03/12 05:46:41;;;;;;;2.30;1.13;;;;;;;0.44;100.00;96364.59;5137546;27;20068;-57
2023/03/12 05:49:07;;;;;;;1.00;1.00;;;;;;;0.53;100.00;96385.84;5137849;28;20057;-65
2023/03/12 05:51:34;;;;;;;1.63;1.35;;;;;;;0.15;100.00;96401.94;5137363;27;20142;-60
2023/03/12 05:54:00;;;;;;;1.60;1.40;;;;;;;0.30;100.00;96405.59;5137874;27;20043;-60
2023/03/12 05:56:26;;;;;;;3.83;1.58;;;;;;;0.18;100.00;96414.66;5137328;27;20133;-66
2023/03/12 05:58:52;;;;;;;6.28;1.30;;;;;;;-0.19;100.00;96398.34;5137368;28;20043;-58
2023/03/12 06:01:20;;;;;;;4.45;1.20;;;;;;;0.04;100.00;96397.53;5137585;27;20416;-62
2023/03/12 06:03:46;;;;;;;4.88;1.70;;;;;;;0.26;100.00;96375.13;5137342;27;20142;-58
2023/03/12 06:06:13;;;;;;;1.50;1.40;;;;;;;1.50;100.00;96393.03;5137494;27;20047;-66
2023/03/12 06:08:39;;;;;;;2.67;1.27;;;;;;;1.96;100.00;96484.47;5137368;28;20204;-66
2023/03/12 06:11:05;;;;;;;5.13;1.55;;;;;;;2.31;100.00;96578.59;5137898;28;20134;-61
2023/03/12 06:13:32;;;;;;;2.58;1.30;;;;;;;2.93;100.00;96621.19;5137364;28;20150;-64
2023/03/12 06:16:03;;;;;;;8.50;1.60;;;;;;;3.39;100.00;96702.69;5137510;27;20499;-66
2023/03/12 06:18:29;;;;;;;3.08;1.65;;;;;;;3.70;100.00;96757.47;5137149;28;20051;-66
2023/03/12 06:20:55;;;;;;;1.23;1.15;;;;;;;3.75;100.00;96774.13;5137585;27;20047;-61
2023/03/12 06:23:21;;;;;;;3.72;1.63;;;;;;;4.06;100.00;96815.34;5136899;28;20103;-62
2023/03/12 06:25:47;;;;;;;1.42;1.30;;;;;;;3.75;100.00;96830.28;5137733;28;20053;-61
2023/03/12 06:28:13;;;;;;;2.67;0.98;;;;;;;3.69;100.00;96835.25;5137461;27;20047;-63
2023/03/12 06:30:39;;;;;;;4.03;1.35;;;;;;;3.82;100.00;96835.72;5136921;28;20050;-64
2023/03/12 06:33:07;;;;;;;2.00;1.60;;;;;;;4.00;100.00;96852.91;5137234;28;20089;-65
2023/03/12 06:35:34;;;;;;;2.60;1.27;;;;;;;3.80;100.00;96846.19;5137116;27;20378;-64
2023/03/12 06:38:00;;;;;;;2.88;1.75;;;;;;;3.01;100.00;96826.56;5137132;28;20051;-61
2023/03/12 06:40:26;;;;;;;4.15;1.58;;;;;;;2.67;100.00;96798.00;5137096;28;20058;-62
2023/03/12 06:42:52;;;;;;;1.88;1.55;;;;;;;3.45;100.00;96787.09;5137225;28;20047;-61
2023/03/12 06:45:18;;;;;;;2.20;1.45;;;;;;;4.00;100.00;96804.09;5136998;27;20101;-61
2023/03/12 06:47:44;;;;;;;1.60;1.35;;;;;;;2.96;100.00;96790.94;5138371;27;20070;-63
2023/03/12 06:50:10;;;;;;;1.65;1.38;;;;;;;2.77;100.00;96776.47;5140746;28;20138;-63
2023/03/12 06:52:36;;;;;;;1.60;1.50;;;;;;;2.42;100.00;96770.66;5141026;28;20043;-62
2023/03/12 06:55:03;;;;;;;6.88;1.45;;;;;;;2.21;100.00;96719.84;5140142;27;20134;-65
2023/03/12 06:57:29;;;;;;;2.28;1.67;;;;;;;2.67;100.00;96690.56;5140468;28;20434;-63
2023/03/12 06:59:55;;;;;;;6.15;1.75;;;;;;;3.22;100.00;96731.22;5140413;28;20328;-64
2023/03/12 07:02:21;;;;;;;5.65;1.73;;;;;;;3.82;100.00;96757.13;5140178;28;20051;-64
2023/03/12 07:04:47;;;;;;;2.35;1.40;;;;;;;4.07;100.00;96797.19;5140467;27;20047;-62
2023/03/12 07:07:13;;;;;;;2.80;1.60;;;;;;;3.04;100.00;96798.75;5139873;28;20442;-61
2023/03/12 07:09:39;;;;;;;4.30;1.60;;;;;;;3.43;100.00;96773.13;5140448;27;20103;-62
2023/03/12 07:12:05;;;;;;;2.58;1.48;;;;;;;2.88;100.00;96741.38;5140174;27;20055;-62
2023/03/12 07:14:31;;;;;;;10.75;2.70;;;;;;;2.68;100.00;96723.81;5140288;27;20061;-64
2023/03/12 07:17:00;;;;;;;9.82;2.03;;;;;;;2.79;100.00;96694.91;5140109;28;20317;-65
2023/03/12 07:19:28;;;;;;;6.28;2.13;;;;;;;3.15;100.00;96700.59;5140013;28;20047;-67
2023/03/12 07:21:54;;;;;;;3.00;1.27;;;;;;;3.83;100.00;96757.91;5139905;27;20329;-60
2023/03/12 07:24:20;;;;;;;7.68;1.98;;;;;;;3.89;100.00;96759.88;5140316;28;20192;-68
2023/03/12 07:26:46;;;;;;;2.33;1.30;;;;;;;4.77;100.00;96795.91;5140063;28;20051;-67
2023/03/12 07:29:12;;;;;;;3.92;1.83;;;;;;;4.73;100.00;96824.94;5140002;28;20074;-64
2023/03/12 07:31:39;;;;;;;1.42;1.30;;;;;;;4.66;100.00;96846.63;5140077;28;20079;-65
2023/03/12 07:34:05;;;;;;;7.25;1.85;;;;;;;3.80;100.00;96837.25;5139857;27;20383;-65
2023/03/12 07:36:32;;;;;;;3.67;1.45;;;;;;;3.42;100.00;96798.69;5140136;27;20072;-62
2023/03/12 07:38:58;;;;;;;2.28;1.50;;;;;;;3.87;100.00;96796.69;5139488;28;20074;-69
2023/03/12 07:41:24;;;;;;;2.92;1.70;;;;;;;4.92;100.00;96800.19;5139706;28;20089;-67
2023/03/12 07:43:50;;;;;;;4.63;1.45;;;;;;;5.89;100.00;96835.53;5139610;28;20065;-67
2023/03/12 07:46:16;;;;;;;5.63;1.85;;;;;;;6.31;100.00;96861.16;5139975;27;20047;-62
2023/03/12 07:48:42;;;;;;;4.20;1.90;;;;;;;6.20;100.00;96931.13;5139424;28;20142;-63
2023/03/12 07:51:08;;;;;;;4.07;1.75;;;;;;;5.72;100.00;96912.47;5139972;28;20047;-61
2023/03/12 07:53:34;;;;;;;3.05;1.77;;;;;;;4.97;100.00;96894.06;5139375;27;20075;-64
2023/03/12 07:56:00;;;;;;;4.85;1.67;;;;;;;3.65;100.00;96913.03;5139420;27;20047;-62
2023/03/12 07:58:26;;;;;;;4.10;1.67;;;;;;;4.64;100.00;96838.88;5139238;27;20065;-65
2023/03/12 08:00:55;;;;;;;3.55;1.90;;;;;;;5.59;100.00;96825.06;5139805;28;20047;-67
2023/03/12 08:03:20;;;;;;;2.83;1.73;;;;;;;6.34;100.00;96884.84;5139607;28;20130;-61
2023/03/12 08:05:56;;;;;;;5.40;2.10;;;;;;;6.76;100.00;96911.16;5139347;27;20093;-61
2023/03/12 08:08:22;;;;;;;5.57;1.80;;;;;;;6.99;100.00;96918.09;5139523;28;20093;-61
2023/03/12 08:10:48;;;;;;;2.67;1.65;;;;;;;6.98;100.00;96922.00;5139115;28;20423;-61
2023/03/12 08:13:14;;;;;;;5.55;1.75;;;;;;;6.60;100.00;96908.13;5139631;27;20082;-63
2023/03/12 08:15:40;;;;;;;6.03;2.33;;;;;;;7.03;100.00;96905.22;5139125;28;20078;-65
2023/03/12 08:18:06;;;;;;;4.15;1.90;;;;;;;7.09;100.00;96890.03;5139596;28;20151;-65
2023/03/12 08:20:32;;;;;;;3.50;1.60;;;;;;;6.30;100.00;96912.09;5139226;27;20382;-61
2023/03/12 08:22:58;;;;;;;1.90;1.70;;;;;;;5.62;100.00;96898.47;5139271;28;20047;-63
2023/03/12 08:25:24;;;;;;;6.05;2.10;;;;;;;4.98;100.00;96870.41;5138999;27;20541;-63
2023/03/12 08:27:50;;;;;;;3.50;1.85;;;;;;;4.69;100.00;96837.72;5138991;28;20077;-67
2023/03/12 08:30:17;;;;;;;6.68;1.70;;;;;;;5.31;100.00;96834.78;5139231;27;20043;-69
2023/03/12 08:32:43;;;;;;;2.63;1.52;;;;;;;7.06;100.00;96850.75;5138920;28;20408;-64
2023/03/12 08:35:09;;;;;;;5.90;1.90;;;;;;;7.01;100.00;96885.78;5139014;27;20103;-65
2023/03/12 08:37:35;;;;;;;2.55;1.70;;;;;;;7.05;100.00;96892.78;5139029;28;20157;-63
2023/03/12 08:40:07;;;;;;;2.95;1.73;;;;;;;6.66;100.00;96911.97;5139203;27;20063;-65
2023/03/12 08:42:33;;;;;;;3.50;1.95;;;;;;;5.84;100.00;96893.81;5138664;28;20142;-63
2023/03/12 08:45:01;;;;;;;2.65;1.73;;;;;;;4.91;100.00;96887.47;5138617;28;20079;-68
2023/03/12 08:47:27;;;;;;;4.22;2.00;;;;;;;4.66;100.00;96858.25;5138512;28;20108;-68
2023/03/12 08:49:53;;;;;;;4.78;1.75;;;;;;;3.86;100.00;96814.84;5138494;27;20051;-68
2023/03/12 08:52:21;;;;;;;4.55;2.05;;;;;;;4.19;100.00;96810.38;5138804;28;20086;-68
2023/03/12 08:54:46;;;;;;;4.25;2.00;;;;;;;3.72;100.00;96788.44;5138730;28;20055;-62
2023/03/12 08:57:14;;;;;;;3.45;1.90;;;;;;;4.16;100.00;96771.25;5138737;27;20078;-63
2023/03/12 08:59:40;;;;;;;4.43;2.13;;;;;;;3.35;100.00;96722.78;5138508;28;20061;-65
2023/03/12 09:02:06;;;;;;;4.43;2.20;;;;;;;3.39;100.00;96664.78;5138901;27;20047;-67
2023/03/12 09:04:32;;;;;;;3.95;2.17;;;;;;;3.39;100.00;96642.34;5138290;27;20049;-64
2023/03/12 09:07:02;;;;;;;4.97;2.47;;;;;;;2.51;100.00;96625.91;5138597;28;20079;-61
2023/03/12 09:09:28;;;;;;;7.85;2.67;;;;;;;2.68;100.00;96589.31;5138025;27;20169;-68
2023/03/12 09:11:56;;;;;;;5.55;2.60;;;;;;;2.05;100.00;96544.38;5138003;28;20055;-65
2023/03/12 09:14:24;;;;;;;6.70;2.20;;;;;;;2.38;100.00;96526.50;5138066;28;20046;-68
2023/03/12 09:16:50;;;;;;;5.70;3.05;;;;;;;2.49;100.00;96514.59;5138532;27;20055;-63
2023/03/12 09:19:16;;;;;;;4.85;2.40;;;;;;;2.59;100.00;96505.78;5138410;27;20138;-61
2023/03/12 09:21:42;;;;;;;5.28;2.95;;;;;;;2.06;100.00;96454.06;5138588;27;20354;-60
2023/03/12 09:24:09;;;;;;;5.07;3.17;;;;;;;2.12;100.00;96464.13;5138375;28;20043;-65
2023/03/12 09:26:35;;;;;;;5.40;3.08;;;;;;;1.67;100.00;96454.53;5138085;28;20443;-69
2023/03/12 09:29:03;;;;;;;5.85;3.30;;;;;;;1.89;100.00;96436.56;5138329;28;20055;-68
2023/03/12 09:31:30;;;;;;;3.92;2.88;;;;;;;2.17;100.00;96410.91;5137883;28;20477;-68
2023/03/12 09:33:56;;;;;;;5.65;3.00;;;;;;;1.81;100.00;96426.84;5138115;27;20145;-67
2023/03/12 09:36:22;;;;;;;6.18;2.92;;;;;;;2.03;100.00;96414.25;5137891;28;20051;-70
2023/03/12 09:38:48;;;;;;;5.05;3.15;;;;;;;1.60;100.00;96406.63;5138184;27;20055;-68
2023/03/12 09:41:18;;;;;;;9.85;3.97;;;;;;;1.92;100.00;96395.28;5137659;27;20051;-66
2023/03/12 09:43:50;;;;;;;4.97;3.60;;;;;;;1.78;100.00;96378.97;5138083;27;20057;-64
2023/03/12 09:46:23;;;;;;;5.85;3.78;;;;;;;1.98;100.00;96379.50;5137698;27;20141;-64
2023/03/12 09:48:52;;;;;;;7.95;3.70;;;;;;;1.81;100.00;96370.13;5137794;28;20439;-68
2023/03/12 09:51:23;;;;;;;6.85;4.07;;;;;;;1.13;100.00;96364.16;5137770;27;20365;-65
2023/03/12 09:53:54;;;;;;;8.48;4.13;;;;;;;1.63;100.00;96380.78;5137615;28;20047;-64
2023/03/12 09:56:22;;;;;;;7.68;4.43;;;;;;;1.29;100.00;96374.72;5137979;27;20145;-67
2023/03/12 09:58:50;;;;;;;7.45;4.60;;;;;;;0.99;100.00;96386.38;5137566;28;20271;-61
2023/03/12 10:01:31;;;;;;;5.75;3.58;;;;;;;0.94;100.00;96400.22;5137959;27;20065;-61
2023/03/12 10:04:09;;;;;;;6.95;4.47;;;;;;;1.37;100.00;96385.22;5137365;27;20465;-69
2023/03/12 10:06:40;;;;;;;8.57;4.88;;;;;;;1.40;100.00;96403.38;5137506;27;20055;-63
2023/03/12 10:09:24;;;;;;;6.47;3.83;;;;;;;2.07;100.00;96383.44;5137712;27;20047;-68
2023/03/12 10:12:02;;;;;;;7.95;4.25;;;;;;;2.10;100.00;96379.97;5137531;28;20492;-64
2023/03/12 10:14:45;;;;;;;7.63;3.10;;;;;;;2.66;100.00;96383.31;5137840;28;20051;-68
2023/03/12 10:17:29;;;;;;;7.78;4.13;;;;;;;2.40;100.00;96391.69;5137274;28;20150;-69
2023/03/12 10:20:16;;;;;;;5.35;2.97;;;;;;;2.30;100.00;96404.00;5137549;27;20153;-61
2023/03/12 10:22:54;;;;;;;7.43;3.47;;;;;;;2.45;100.00;96394.81;5142692;27;20483;-67
2023/03/12 10:25:27;;;;;;;3.75;2.90;;;;;;;2.23;100.00;96393.16;5144054;27;20514;-63
2023/03/12 10:27:57;;;;;;;9.10;4.22;;;;;;;2.00;100.00;96405.00;5144325;27;20149;-63
2023/03/12 10:30:25;;;;;;;4.53;2.47;;;;;;;1.87;100.00;96411.84;5144034;27;20134;-62
2023/03/12 10:32:56;;;;;;;3.38;2.83;;;;;;;2.03;100.00;96436.69;5144426;27;20051;-68
2023/03/12 10:35:24;;;;;;;5.53;3.22;;;;;;;1.57;100.00;96425.50;5144312;27;20436;-62
2023/03/12 10:37:53;;;;;;;4.22;2.65;;;;;;;2.06;100.00;96427.03;5144891;27;20149;-69
2023/03/12 10:40:21;;;;;;;4.70;2.35;;;;;;;2.00;100.00;96450.13;5145525;27;20133;-68
2023/03/12 10:42:48;;;;;;;3.00;1.80;;;;;;;1.73;100.00;96498.94;5145437;27;20138;-66
2023/03/12 10:45:23;;;;;;;5.78;2.78;;;;;;;1.94;100.00;96465.94;5145765;27;20046;-69
2023/03/12 10:47:51;;;;;;;4.32;2.55;;;;;;;2.25;100.00;96494.34;5145087;27;20142;-63
2023/03/12 10:50:18;;;;;;;3.15;2.25;;;;;;;2.15;100.00;96570.72;5145623;27;20134;-68
2023/03/12 10:52:46;;;;;;;4.43;2.03;;;;;;;2.96;100.00;96547.34;5145099;27;20076;-64
2023/03/12 10:55:20;;;;;;;12.75;3.95;;;;;;;3.09;100.00;96604.66;5144946;27;20057;-68
2023/03/12 10:57:47;;;;;;;6.60;2.95;;;;;;;3.05;100.00;96631.69;5145024;27;20061;-69
2023/03/12 11:00:19;;;;;;;3.92;3.00;;;;;;;2.40;100.00;96668.31;5145636;27;20047;-64
2023/03/12 11:02:55;;;;;;;10.80;3.25;;;;;;;2.66;100.00;96656.53;5145740;27;20146;-68
2023/03/12 11:05:24;;;;;;;5.72;3.53;;;;;;;1.87;100.00;96663.88;5143906;27;20112;-66
2023/03/12 11:07:51;;;;;;;5.00;2.33;;;;;;;1.87;100.00;96668.50;5143911;27;20336;-62
2023/03/12 11:10:19;;;;;;;7.50;2.90;;;;;;;1.17;100.00;96643.72;5143853;27;20107;-68
2023/03/12 11:13:21;;;;;;;1.55;1.10;;;;;;;1.79;100.00;96610.91;5144074;27;20043;-61
2023/03/12 11:15:47;;;;;;;5.70;2.60;;;;;;;1.77;100.00;96559.19;5143551;27;20061;-63
2023/03/12 11:18:29;;;;;;;3.25;2.15;;;;;;;1.61;100.00;96591.03;5143907;27;20051;-62
2023/03/12 11:20:56;;;;;;;9.25;2.83;;;;;;;1.30;100.00;96574.09;5143346;27;20137;-64
2023/03/12 11:23:26;;;;;;;6.63;1.85;;;;;;;1.84;100.00;96577.38;5143612;27;20145;-59
2023/03/12 11:25:55;;;;;;;8.52;4.18;;;;;;;1.63;100.00;96626.53;5143660;27;20043;-68
2023/03/12 11:28:24;;;;;;;5.32;1.88;;;;;;;1.60;100.00;96592.97;5143473;27;20275;-62
2023/03/12 11:30:53;;;;;;;3.35;1.70;;;;;;;1.64;100.00;96612.69;5143727;27;20051;-63